Time,TemperatureF,DewpointF,PressureIn,WindDirection,WindDirectionDegrees,WindSpeedMPH,WindSpeedGustMPH,Humidity,HourlyPrecipIn,Conditions,Clouds,dailyrainin,SoftwareType,DateUTC
2013-09-11 00:00:00,74.9,66.8,29.82,North,352,1.0,6.0,76,0.00,CLR,,0.00,WeatherDisplay:10.37,2013-09-11 05:00:00,
2013-09-11 00:05:00,74.7,66.6,29.83,NNW,339,0.0,4.0,76,0.00,CLR,,0.00,WeatherDisplay:10.37,2013-09-11 05:05:00,
2013-09-11 00:10:00,74.6,66.9,29.83,NNW,348,1.0,5.0,77,0.00,CLR,,0.00,WeatherDisplay:10.37,2013-09-11 05:10:00,
2013-09-11 00:15:00,74.5,66.8,29.83,North,352,0.0,3.0,77,0.00,CLR,,0.00,WeatherDisplay:10.37,2013-09-11 05:15:00,
2013-09-11 00:20:00,74.4,66.7,29.83,North,11,0.0,3.0,77,0.00,CLR,,0.00,WeatherDisplay:10.37,2013-09-11 05:20:00,
2013-09-11 00:25:00,74.2,66.9,29.83,NNE,20,0.0,1.0,78,0.00,CLR,,0.00,WeatherDisplay:10.37,2013-09-11 05:25:00,
2013-09-11 00:30:00,74.0,66.7,29.83,NNE,20,0.0,1.0,78,0.00,CLR,,0.00,WeatherDisplay:10.37,2013-09-11 05:30:00,
2013-09-11 00:35:00,73.9,67.0,29.83,NNE,21,0.0,1.0,79,0.00,CLR,,0.00,WeatherDisplay:10.37,2013-09-11 05:35:00,
2013-09-11 00:40:00,73.6,67.0,29.83,NNE,21,1.0,3.0,80,0.00,CLR,,0.00,WeatherDisplay:10.37,2013-09-11 05:40:00,
2013-09-11 00:45:00,73.3,66.8,29.83,NNE,21,0.0,3.0,80,0.00,CLR,,0.00,WeatherDisplay:10.37,2013-09-11 05:45:00,
2013-09-11 00:50:00,73.2,67.0,29.84,NNE,25,0.0,1.0,81,0.00,CLR,,0.00,WeatherDisplay:10.37,2013-09-11 05:50:00,
2013-09-11 00:55:00,73.0,67.2,29.84,NE,34,0.0,1.0,82,0.00,CLR,,0.00,WeatherDisplay:10.37,2013-09-11 05:55:00,
2013-09-11 01:00:00,72.8,67.3,29.84,NE,34,0.0,1.0,83,0.00,CLR,,0.00,WeatherDisplay:10.37,2013-09-11 06:00:00,
2013-09-11 01:05:00,72.7,67.2,29.84,NE,34,0.0,3.0,83,0.00,CLR,,0.00,WeatherDisplay:10.37,2013-09-11 06:05:00,
2013-09-11 01:10:00,72.7,67.6,29.84,NE,40,0.0,3.0,84,0.00,CLR,,0.00,WeatherDisplay:10.37,2013-09-11 06:10:00,
2013-09-11 01:15:00,72.7,67.6,29.84,ENE,68,1.0,3.0,84,0.00,CLR,,0.00,WeatherDisplay:10.37,2013-09-11 06:15:00,
2013-09-11 01:25:00,72.7,67.6,29.84,ENE,78,1.0,4.0,84,0.00,CLR,,0.00,WeatherDisplay:10.37,2013-09-11 06:25:00,
2013-09-11 01:30:00,72.7,67.2,29.84,East,80,2.0,3.0,83,0.00,CLR,,0.00,WeatherDisplay:10.37,2013-09-11 06:30:00,
2013-09-11 01:35:00,72.7,67.2,29.83,East,79,2.0,4.0,83,0.00,CLR,,0.00,WeatherDisplay:10.37,2013-09-11 06:35:00,
2013-09-11 01:40:00,72.7,67.2,29.83,ENE,78,0.0,1.0,83,0.00,CLR,,0.00,WeatherDisplay:10.37,2013-09-11 06:40:00,
2013-09-11 01:45:00,72.7,67.2,29.83,ENE,77,0.0,1.0,83,0.00,CLR,,0.00,WeatherDisplay:10.37,2013-09-11 06:45:00,
2013-09-11 01:50:00,72.3,67.2,29.83,ENE,77,0.0,0.0,84,0.00,CLR,,0.00,WeatherDisplay:10.37,2013-09-11 06:50:00,
2013-09-11 01:55:00,72.1,67.0,29.83,ENE,77,0.0,0.0,84,0.00,CLR,,0.00,WeatherDisplay:10.37,2013-09-11 06:55:00,
2013-09-11 02:00:00,72.1,67.0,29.83,ENE,77,0.0,0.0,84,0.00,CLR,,0.00,WeatherDisplay:10.37,2013-09-11 07:00:00,
2013-09-11 02:05:00,72.1,67.0,29.84,ENE,76,0.0,0.0,84,0.00,CLR,,0.00,WeatherDisplay:10.37,2013-09-11 07:05:00,
2013-09-11 02:10:00,72.0,66.9,29.84,ENE,77,0.0,1.0,84,0.00,CLR,,0.00,WeatherDisplay:10.37,2013-09-11 07:10:00,
2013-09-11 02:15:00,72.0,66.9,29.84,ENE,76,1.0,3.0,84,0.00,CLR,,0.00,WeatherDisplay:10.37,2013-09-11 07:15:00,
2013-09-11 02:20:00,72.0,67.2,29.84,ENE,77,0.0,1.0,85,0.00,CLR,,0.00,WeatherDisplay:10.37,2013-09-11 07:20:00,
2013-09-11 02:25:00,71.8,67.0,29.84,ENE,77,0.0,0.0,85,0.00,CLR,,0.00,WeatherDisplay:10.37,2013-09-11 07:25:00,
2013-09-11 02:30:00,71.6,66.8,29.84,ENE,77,0.0,0.0,85,0.00,CLR,,0.00,WeatherDisplay:10.37,2013-09-11 07:30:00,
2013-09-11 02:35:00,71.6,67.2,29.85,ENE,77,0.0,0.0,86,0.00,CLR,,0.00,WeatherDisplay:10.37,2013-09-11 07:35:00,
2013-09-11 02:40:00,71.5,67.1,29.85,ENE,76,0.0,0.0,86,0.00,CLR,,0.00,WeatherDisplay:10.37,2013-09-11 07:40:00,
2013-09-11 02:45:00,71.5,67.4,29.85,ENE,76,0.0,0.0,87,0.00,CLR,,0.00,WeatherDisplay:10.37,2013-09-11 07:45:00,
2013-09-11 02:50:00,71.5,67.8,29.86,ENE,77,0.0,0.0,88,0.01,RA,,0.01,WeatherDisplay:10.37,2013-09-11 07:50:00,
2013-09-11 02:55:00,71.5,68.4,29.86,ENE,77,0.0,0.0,90,0.01,RA,,0.02,WeatherDisplay:10.37,2013-09-11 07:55:00,
2013-09-11 03:00:00,71.3,68.2,29.86,ENE,77,0.0,0.0,90,0.00,RA,,0.02,WeatherDisplay:10.37,2013-09-11 08:00:00,
2013-09-11 03:05:00,71.3,68.5,29.86,ENE,77,0.0,0.0,91,0.00,CLR,,0.02,WeatherDisplay:10.37,2013-09-11 08:05:00,
2013-09-11 03:10:00,71.1,68.7,29.86,ENE,77,0.0,1.0,92,0.00,CLR,,0.02,WeatherDisplay:10.37,2013-09-11 08:10:00,
2013-09-11 03:15:00,70.9,68.8,29.86,ENE,77,0.0,0.0,93,0.00,CLR,,0.02,WeatherDisplay:10.37,2013-09-11 08:15:00,
2013-09-11 03:20:00,70.9,69.1,29.86,ENE,77,0.0,1.0,94,0.00,CLR,,0.02,WeatherDisplay:10.37,2013-09-11 08:20:00,
2013-09-11 03:25:00,70.9,69.4,29.86,ENE,77,0.0,0.0,95,0.00,CLR,,0.02,WeatherDisplay:10.37,2013-09-11 08:25:00,
2013-09-11 03:30:00,70.8,69.3,29.86,ENE,77,0.0,0.0,95,0.00,CLR,,0.02,WeatherDisplay:10.37,2013-09-11 08:30:00,
2013-09-11 03:35:00,70.8,69.3,29.85,ENE,77,0.0,0.0,95,0.01,RA,,0.03,WeatherDisplay:10.37,2013-09-11 08:35:00,
2013-09-11 03:40:00,70.8,69.6,29.85,ENE,77,0.0,0.0,96,0.00,RA,,0.03,WeatherDisplay:10.37,2013-09-11 08:40:00,
2013-09-11 03:45:00,70.6,69.4,29.85,ENE,77,0.0,0.0,96,0.00,CLR,,0.03,WeatherDisplay:10.37,2013-09-11 08:45:00,
2013-09-11 03:50:00,70.6,69.4,29.86,ENE,77,0.0,0.0,96,0.01,RA,,0.04,WeatherDisplay:10.37,2013-09-11 08:50:00,
2013-09-11 03:55:00,70.4,69.2,29.86,ENE,76,0.0,0.0,96,0.02,RA,,0.06,WeatherDisplay:10.37,2013-09-11 08:55:00,
2013-09-11 04:00:00,70.4,69.2,29.86,ENE,77,0.0,0.0,96,0.03,RA,,0.09,WeatherDisplay:10.37,2013-09-11 09:00:00,
2013-09-11 04:05:00,70.3,69.1,29.86,ENE,77,0.0,0.0,96,0.07,RA,,0.16,WeatherDisplay:10.37,2013-09-11 09:05:00,
2013-09-11 04:10:00,70.1,69.2,29.86,ENE,77,0.0,0.0,97,0.05,RA,,0.21,WeatherDisplay:10.37,2013-09-11 09:10:00,
2013-09-11 04:15:00,69.9,69.0,29.86,ENE,76,0.0,0.0,97,0.03,RA,,0.24,WeatherDisplay:10.37,2013-09-11 09:15:00,
2013-09-11 04:20:00,69.8,68.9,29.86,ENE,77,0.0,0.0,97,0.01,RA,,0.25,WeatherDisplay:10.37,2013-09-11 09:20:00,
2013-09-11 04:25:00,69.8,68.9,29.86,ENE,77,0.0,0.0,97,0.00,RA,,0.25,WeatherDisplay:10.37,2013-09-11 09:25:00,
2013-09-11 04:30:00,69.6,69.0,29.86,ENE,77,0.0,0.0,98,0.00,CLR,,0.25,WeatherDisplay:10.37,2013-09-11 09:30:00,
2013-09-11 04:35:00,69.6,69.0,29.86,ENE,77,0.0,0.0,98,0.05,RA,,0.30,WeatherDisplay:10.37,2013-09-11 09:35:00,
2013-09-11 04:40:00,69.4,68.8,29.86,ENE,77,0.0,0.0,98,0.01,RA,,0.31,WeatherDisplay:10.37,2013-09-11 09:40:00,
2013-09-11 04:45:00,69.4,68.8,29.86,ENE,77,0.0,0.0,98,0.00,RA,,0.31,WeatherDisplay:10.37,2013-09-11 09:45:00,
2013-09-11 04:50:00,69.3,68.7,29.86,ENE,77,0.0,0.0,98,0.00,CLR,,0.31,WeatherDisplay:10.37,2013-09-11 09:50:00,
2013-09-11 04:55:00,69.3,68.7,29.86,ENE,76,0.0,0.0,98,0.00,CLR,,0.31,WeatherDisplay:10.37,2013-09-11 09:55:00,
2013-09-11 05:00:00,69.1,68.5,29.86,ENE,77,0.0,0.0,98,0.00,CLR,,0.31,WeatherDisplay:10.37,2013-09-11 10:00:00,
2013-09-11 05:05:00,69.1,68.5,29.87,ENE,77,0.0,0.0,98,0.06,RA,,0.37,WeatherDisplay:10.37,2013-09-11 10:05:00,
2013-09-11 05:10:00,68.9,68.6,29.87,ENE,77,0.0,0.0,99,0.00,RA,,0.37,WeatherDisplay:10.37,2013-09-11 10:10:00,
2013-09-11 05:15:00,68.9,68.6,29.87,ENE,76,0.0,0.0,99,0.01,RA,,0.38,WeatherDisplay:10.37,2013-09-11 10:15:00,
2013-09-11 05:20:00,68.8,68.5,29.86,ENE,76,0.0,0.0,99,0.00,RA,,0.38,WeatherDisplay:10.37,2013-09-11 10:20:00,
2013-09-11 05:25:00,68.6,68.3,29.86,ENE,76,0.0,0.0,99,0.00,CLR,,0.38,WeatherDisplay:10.37,2013-09-11 10:25:00,
2013-09-11 05:30:00,68.4,68.1,29.86,ENE,76,0.0,0.0,99,0.00,CLR,,0.38,WeatherDisplay:10.37,2013-09-11 10:30:00,
2013-09-11 05:35:00,68.3,68.0,29.87,ENE,76,0.0,0.0,99,0.00,CLR,,0.38,WeatherDisplay:10.37,2013-09-11 10:35:00,
2013-09-11 05:40:00,68.3,68.0,29.87,ENE,77,0.0,0.0,99,0.00,CLR,,0.38,WeatherDisplay:10.37,2013-09-11 10:40:00,
2013-09-11 05:45:00,68.3,68.0,29.87,ENE,77,0.0,0.0,99,0.00,CLR,,0.38,WeatherDisplay:10.37,2013-09-11 10:45:00,
2013-09-11 05:50:00,68.1,67.8,29.87,ENE,76,0.0,0.0,99,0.00,CLR,,0.38,WeatherDisplay:10.37,2013-09-11 10:50:00,
2013-09-11 05:55:00,68.1,67.8,29.87,ENE,77,0.0,0.0,99,0.01,RA,,0.39,WeatherDisplay:10.37,2013-09-11 10:55:00,
2013-09-11 06:05:00,67.9,67.6,29.89,ENE,77,0.0,0.0,99,0.03,RA,,0.43,WeatherDisplay:10.37,2013-09-11 11:05:00,
2013-09-11 06:10:00,67.8,67.5,29.89,ENE,77,0.0,1.0,99,0.08,RA,,0.51,WeatherDisplay:10.37,2013-09-11 11:10:00,
2013-09-11 06:15:00,67.6,67.3,29.89,ENE,77,0.0,0.0,99,0.01,RA,,0.52,WeatherDisplay:10.37,2013-09-11 11:15:00,
2013-09-11 06:20:00,67.4,67.1,29.94,ENE,78,0.0,2.0,99,0.04,RA,,0.56,WeatherDisplay:10.37,2013-09-11 11:20:00,
2013-09-11 06:25:00,67.3,66.7,29.94,WSW,248,2.0,12.0,98,0.22,RA,,0.78,WeatherDisplay:10.37,2013-09-11 11:25:00,
2013-09-11 06:30:00,66.9,66.3,29.94,SW,220,1.0,12.0,98,0.02,RA,,0.80,WeatherDisplay:10.37,2013-09-11 11:30:00,
2013-09-11 06:35:00,66.7,66.1,29.94,SW,217,2.0,8.0,98,0.01,RA,,0.81,WeatherDisplay:10.37,2013-09-11 11:35:00,
2013-09-11 06:40:00,66.8,65.9,29.94,WSW,238,0.0,5.0,97,0.00,RA,,0.81,WeatherDisplay:10.37,2013-09-11 11:40:00,
2013-09-11 06:45:00,66.6,65.7,29.94,WSW,240,0.0,6.0,97,0.01,RA,,0.82,WeatherDisplay:10.37,2013-09-11 11:45:00,
2013-09-11 06:50:00,66.8,65.9,29.93,SW,218,0.0,3.0,97,0.00,RA,,0.82,WeatherDisplay:10.37,2013-09-11 11:50:00,
2013-09-11 06:55:00,66.8,65.9,29.93,WSW,257,0.0,5.0,97,0.02,RA,,0.84,WeatherDisplay:10.37,2013-09-11 11:55:00,
2013-09-11 07:00:00,66.8,65.9,29.93,West,272,0.0,2.0,97,0.02,RA,,0.86,WeatherDisplay:10.37,2013-09-11 12:00:00,
2013-09-11 07:05:00,66.8,66.2,29.92,WSW,256,0.0,1.0,98,0.02,RA,,0.88,WeatherDisplay:10.37,2013-09-11 12:05:00,
2013-09-11 07:10:00,66.6,65.7,29.92,WSW,254,0.0,2.0,97,0.02,RA,,0.90,WeatherDisplay:10.37,2013-09-11 12:10:00,
2013-09-11 07:20:00,66.4,65.8,29.91,WSW,239,0.0,0.0,98,0.03,RA,,0.95,WeatherDisplay:10.37,2013-09-11 12:20:00,
2013-09-11 07:25:00,66.4,65.8,29.91,WSW,238,0.0,2.0,98,0.02,RA,,0.97,WeatherDisplay:10.37,2013-09-11 12:25:00,
2013-09-11 07:30:00,66.3,65.7,29.91,WSW,238,0.0,0.0,98,0.02,RA,,0.99,WeatherDisplay:10.37,2013-09-11 12:30:00,
2013-09-11 07:35:00,66.3,65.7,29.89,WSW,238,0.0,0.0,98,0.00,RA,,0.99,WeatherDisplay:10.37,2013-09-11 12:35:00,
2013-09-11 07:40:00,66.3,65.7,29.89,WSW,238,0.0,0.0,98,0.01,RA,,1.00,WeatherDisplay:10.37,2013-09-11 12:40:00,
2013-09-11 07:45:00,66.3,66.0,29.89,WSW,238,0.0,0.0,99,0.00,RA,,1.00,WeatherDisplay:10.37,2013-09-11 12:45:00,
2013-09-11 07:50:00,66.3,66.0,29.89,WSW,238,0.0,0.0,99,0.01,RA,,1.01,WeatherDisplay:10.37,2013-09-11 12:50:00,
2013-09-11 07:55:00,66.3,66.0,29.89,WSW,238,0.0,0.0,99,0.00,RA,,1.01,WeatherDisplay:10.37,2013-09-11 12:55:00,
2013-09-11 08:00:00,66.3,66.0,29.89,WSW,238,0.0,0.0,99,0.00,,,1.01,WeatherDisplay:10.37,2013-09-11 13:00:00,
2013-09-11 08:05:00,66.3,66.0,29.88,WSW,238,0.0,0.0,99,0.00,CLR,,1.01,WeatherDisplay:10.37,2013-09-11 13:05:00,
2013-09-11 08:10:00,66.4,66.1,29.88,WSW,238,0.0,0.0,99,0.00,CLR,,1.01,WeatherDisplay:10.37,2013-09-11 13:10:00,
2013-09-11 08:15:00,66.4,66.1,29.88,WSW,238,0.0,0.0,99,0.00,CLR,,1.01,WeatherDisplay:10.37,2013-09-11 13:15:00,
2013-09-11 08:20:00,66.6,66.3,29.87,WSW,238,0.0,0.0,99,0.00,CLR,,1.01,WeatherDisplay:10.37,2013-09-11 13:20:00,
2013-09-11 08:25:00,66.8,66.5,29.87,WSW,238,0.0,0.0,99,0.00,CLR,,1.01,WeatherDisplay:10.37,2013-09-11 13:25:00,
2013-09-11 08:30:00,66.8,66.5,29.87,WSW,238,0.0,0.0,99,0.00,CLR,,1.01,WeatherDisplay:10.37,2013-09-11 13:30:00,
2013-09-11 08:35:00,66.9,66.9,29.86,WSW,238,0.0,0.0,100,0.00,CLR,,1.01,WeatherDisplay:10.37,2013-09-11 13:35:00,
2013-09-11 08:40:00,67.2,67.2,29.86,WSW,237,0.0,0.0,100,0.00,CLR,,1.01,WeatherDisplay:10.37,2013-09-11 13:40:00,
2013-09-11 08:45:00,67.4,67.4,29.86,WSW,237,0.0,0.0,100,0.00,CLR,,1.01,WeatherDisplay:10.37,2013-09-11 13:45:00,
2013-09-11 08:50:00,67.4,67.4,29.87,WSW,237,0.0,0.0,100,0.00,CLR,,1.01,WeatherDisplay:10.37,2013-09-11 13:50:00,
2013-09-11 08:55:00,67.6,67.6,29.87,WSW,237,0.0,2.0,100,0.00,CLR,,1.01,WeatherDisplay:10.37,2013-09-11 13:55:00,
2013-09-11 09:00:00,67.7,67.7,29.87,WSW,237,0.0,0.0,100,0.00,CLR,,1.01,WeatherDisplay:10.37,2013-09-11 14:00:00,
2013-09-11 09:05:00,67.6,67.6,29.87,WSW,237,0.0,2.0,100,0.00,CLR,,1.01,WeatherDisplay:10.37,2013-09-11 14:05:00,
2013-09-11 09:10:00,67.9,67.9,29.87,WSW,237,0.0,1.0,100,0.00,CLR,,1.01,WeatherDisplay:10.37,2013-09-11 14:10:00,
2013-09-11 09:15:00,68.1,68.1,29.87,SW,218,0.0,4.0,100,0.00,CLR,,1.01,WeatherDisplay:10.37,2013-09-11 14:15:00,
2013-09-11 09:20:00,68.3,68.3,29.88,SSW,196,0.0,3.0,100,0.00,CLR,,1.01,WeatherDisplay:10.37,2013-09-11 14:20:00,
2013-09-11 09:25:00,68.6,68.6,29.88,SSW,200,0.0,2.0,100,0.00,CLR,,1.01,WeatherDisplay:10.37,2013-09-11 14:25:00,
2013-09-11 09:30:00,68.8,68.8,29.88,SW,222,1.0,5.0,100,0.00,CLR,,1.01,WeatherDisplay:10.37,2013-09-11 14:30:00,
2013-09-11 09:35:00,69.1,69.1,29.88,South,172,1.0,5.0,100,0.00,CLR,,1.01,WeatherDisplay:10.37,2013-09-11 14:35:00,
2013-09-11 09:40:00,69.1,69.1,29.88,SSE,168,0.0,4.0,100,0.00,CLR,,1.01,WeatherDisplay:10.37,2013-09-11 14:40:00,
2013-09-11 09:45:00,69.3,69.3,29.88,South,188,0.0,3.0,100,0.00,CLR,,1.01,WeatherDisplay:10.37,2013-09-11 14:45:00,
2013-09-11 09:50:00,69.4,69.1,29.88,SSW,206,0.0,8.0,99,0.00,CLR,,1.01,WeatherDisplay:10.37,2013-09-11 14:50:00,
2013-09-11 09:55:00,69.6,69.3,29.88,SSW,207,0.0,3.0,99,0.00,CLR,,1.01,WeatherDisplay:10.37,2013-09-11 14:55:00,
2013-09-11 10:00:00,69.8,69.2,29.88,SW,218,0.0,3.0,98,0.00,CLR,,1.01,WeatherDisplay:10.37,2013-09-11 15:00:00,
2013-09-11 10:05:00,70.1,69.2,29.88,SW,223,0.0,3.0,97,0.00,CLR,,1.01,WeatherDisplay:10.37,2013-09-11 15:05:00,
2013-09-11 10:10:00,70.4,69.2,29.88,SW,215,0.0,3.0,96,0.00,CLR,,1.01,WeatherDisplay:10.37,2013-09-11 15:10:00,
2013-09-11 10:15:00,70.6,69.4,29.88,WSW,243,0.0,3.0,96,0.00,CLR,,1.01,WeatherDisplay:10.37,2013-09-11 15:15:00,
2013-09-11 10:20:00,70.9,69.1,29.88,WSW,250,0.0,3.0,94,0.00,CLR,,1.01,WeatherDisplay:10.37,2013-09-11 15:20:00,
2013-09-11 10:25:00,71.1,69.0,29.88,WSW,250,0.0,1.0,93,0.00,CLR,,1.01,WeatherDisplay:10.37,2013-09-11 15:25:00,
2013-09-11 10:30:00,71.3,68.9,29.88,SW,234,0.0,4.0,92,0.00,CLR,,1.01,WeatherDisplay:10.37,2013-09-11 15:30:00,
2013-09-11 10:35:00,71.5,68.7,29.88,SW,233,0.0,2.0,91,0.00,CLR,,1.01,WeatherDisplay:10.37,2013-09-11 15:35:00,
2013-09-11 10:40:00,71.5,68.5,29.88,WSW,242,0.0,3.0,90,0.00,CLR,,1.01,WeatherDisplay:10.37,2013-09-11 15:40:00,
2013-09-11 10:45:00,71.8,68.7,29.88,WSW,253,0.0,3.0,90,0.00,CLR,,1.01,WeatherDisplay:10.37,2013-09-11 15:45:00,
2013-09-11 10:50:00,72.3,69.2,29.89,West,281,1.0,5.0,90,0.00,CLR,,1.01,WeatherDisplay:10.37,2013-09-11 15:50:00,
2013-09-11 11:00:00,73.0,68.2,29.89,SW,214,1.0,4.0,85,0.00,CLR,,1.01,WeatherDisplay:10.37,2013-09-11 16:00:00,
2013-09-11 11:05:00,73.4,68.6,29.89,SW,233,0.0,4.0,85,0.00,CLR,,1.01,WeatherDisplay:10.37,2013-09-11 16:05:00,
2013-09-11 11:10:00,73.8,69.4,29.89,SW,234,0.0,3.0,86,0.00,CLR,,1.01,WeatherDisplay:10.37,2013-09-11 16:10:00,
2013-09-11 11:15:00,74.0,68.9,29.89,SW,222,1.0,3.0,84,0.00,CLR,,1.01,WeatherDisplay:10.37,2013-09-11 16:15:00,
2013-09-11 11:20:00,74.3,68.8,29.89,SW,229,1.0,5.0,83,0.00,CLR,,1.01,WeatherDisplay:10.37,2013-09-11 16:20:00,
2013-09-11 11:25:00,74.7,69.2,29.89,SW,224,1.0,4.0,83,0.00,CLR,,1.01,WeatherDisplay:10.37,2013-09-11 16:25:00,
2013-09-11 11:30:00,75.3,69.5,29.89,SW,222,0.0,3.0,82,0.00,CLR,,1.01,WeatherDisplay:10.37,2013-09-11 16:30:00,
2013-09-11 11:35:00,76.0,69.4,29.89,SW,228,1.0,3.0,80,0.00,CLR,,1.01,WeatherDisplay:10.37,2013-09-11 16:35:00,
2013-09-11 11:40:00,76.5,69.1,29.89,WSW,242,0.0,6.0,78,0.00,CLR,,1.01,WeatherDisplay:10.37,2013-09-11 16:40:00,
2013-09-11 11:45:00,76.7,69.7,29.89,West,274,1.0,8.0,79,0.00,CLR,,1.01,WeatherDisplay:10.37,2013-09-11 16:45:00,
2013-09-11 11:50:00,76.8,69.8,29.89,West,270,0.0,4.0,79,0.00,CLR,,1.01,WeatherDisplay:10.37,2013-09-11 16:50:00,
2013-09-11 11:55:00,76.8,69.8,29.89,SSW,213,1.0,5.0,79,0.00,CLR,,1.01,WeatherDisplay:10.37,2013-09-11 16:55:00,
2013-09-11 12:00:00,76.9,69.5,29.89,SSW,207,1.0,4.0,78,0.00,CLR,,1.01,WeatherDisplay:10.37,2013-09-11 17:00:00,
2013-09-11 12:05:00,77.0,69.6,29.89,SW,218,0.0,3.0,78,0.00,CLR,,1.01,WeatherDisplay:10.37,2013-09-11 17:05:00,
2013-09-11 12:10:00,76.8,69.5,29.89,SW,236,0.0,3.0,78,0.00,CLR,,1.01,WeatherDisplay:10.37,2013-09-11 17:10:00,
2013-09-11 12:15:00,76.7,69.3,29.89,WSW,242,1.0,4.0,78,0.00,CLR,,1.01,WeatherDisplay:10.37,2013-09-11 17:15:00,
2013-09-11 12:20:00,76.5,68.7,29.89,WSW,246,0.0,4.0,77,0.00,CLR,,1.01,WeatherDisplay:10.37,2013-09-11 17:20:00,
2013-09-11 12:25:00,76.3,68.6,29.89,SW,233,0.0,6.0,77,0.00,CLR,,1.01,WeatherDisplay:10.37,2013-09-11 17:25:00,
2013-09-11 12:30:00,76.3,68.9,29.89,SW,221,0.0,3.0,78,0.00,CLR,,1.01,WeatherDisplay:10.37,2013-09-11 17:30:00,
2013-09-11 12:35:00,76.1,68.7,29.89,SW,214,0.0,3.0,78,0.00,CLR,,1.01,WeatherDisplay:10.37,2013-09-11 17:35:00,
2013-09-11 12:40:00,76.1,68.7,29.89,SSW,208,1.0,5.0,78,0.00,CLR,,1.01,WeatherDisplay:10.37,2013-09-11 17:40:00,
2013-09-11 12:45:00,76.1,68.7,29.89,SW,221,0.0,5.0,78,0.00,CLR,,1.01,WeatherDisplay:10.37,2013-09-11 17:45:00,
2013-09-11 12:50:00,76.3,69.7,29.89,WSW,253,0.0,2.0,80,0.00,CLR,,1.01,WeatherDisplay:10.37,2013-09-11 17:50:00,
2013-09-11 12:55:00,76.3,69.3,29.89,WSW,237,1.0,5.0,79,0.00,CLR,,1.01,WeatherDisplay:10.37,2013-09-11 17:55:00,
2013-09-11 13:00:00,76.5,68.7,29.89,SSW,203,3.0,7.0,77,0.00,CLR,,1.01,WeatherDisplay:10.37,2013-09-11 18:00:00,
2013-09-11 13:05:00,76.8,69.4,29.89,SSW,209,0.0,5.0,78,0.00,CLR,,1.01,WeatherDisplay:10.37,2013-09-11 18:05:00,
2013-09-11 13:10:00,77.2,70.2,29.89,WSW,248,0.0,1.0,79,0.00,CLR,,1.01,WeatherDisplay:10.37,2013-09-11 18:10:00,
2013-09-11 13:15:00,77.6,70.6,29.89,West,278,1.0,3.0,79,0.00,CLR,,1.01,WeatherDisplay:10.37,2013-09-11 18:15:00,
2013-09-11 13:20:00,77.8,69.6,29.89,WNW,290,1.0,4.0,76,0.00,CLR,,1.01,WeatherDisplay:10.37,2013-09-11 18:20:00,
2013-09-11 13:25:00,77.9,69.3,29.89,West,273,0.0,2.0,75,0.00,CLR,,1.01,WeatherDisplay:10.37,2013-09-11 18:25:00,
2013-09-11 13:30:00,77.9,69.3,29.89,WSW,249,1.0,8.0,75,0.00,CLR,,1.01,WeatherDisplay:10.37,2013-09-11 18:30:00,
2013-09-11 13:35:00,77.7,69.1,29.88,SW,232,1.0,6.0,75,0.00,CLR,,1.01,WeatherDisplay:10.37,2013-09-11 18:35:00,
2013-09-11 13:40:00,77.6,69.4,29.88,SSW,213,0.0,4.0,76,0.00,CLR,,1.01,WeatherDisplay:10.37,2013-09-11 18:40:00,
2013-09-11 13:45:00,77.4,69.2,29.88,SSW,202,1.0,3.0,76,0.00,CLR,,1.01,WeatherDisplay:10.37,2013-09-11 18:45:00,
2013-09-11 13:50:00,77.4,70.7,29.88,SW,220,1.0,4.0,80,0.00,CLR,,1.01,WeatherDisplay:10.37,2013-09-11 18:50:00,
2013-09-11 13:55:00,77.6,69.0,29.88,WSW,239,1.0,5.0,75,0.00,CLR,,1.01,WeatherDisplay:10.37,2013-09-11 18:55:00,
2013-09-11 14:00:00,77.7,69.5,29.88,WSW,244,0.0,2.0,76,0.00,CLR,,1.01,WeatherDisplay:10.37,2013-09-11 19:00:00,
2013-09-11 14:05:00,77.9,69.3,29.88,West,268,1.0,6.0,75,0.00,CLR,,1.01,WeatherDisplay:10.37,2013-09-11 19:05:00,
2013-09-11 14:10:00,77.9,69.3,29.88,West,278,1.0,3.0,75,0.00,CLR,,1.01,WeatherDisplay:10.37,2013-09-11 19:10:00,
2013-09-11 14:20:00,78.1,69.1,29.88,WSW,244,0.0,5.0,74,0.00,CLR,,1.01,WeatherDisplay:10.37,2013-09-11 19:20:00,
2013-09-11 14:30:00,78.3,69.8,29.88,SW,232,1.0,5.0,75,0.00,CLR,,1.01,WeatherDisplay:10.37,2013-09-11 19:30:00,
2013-09-11 14:35:00,78.6,70.0,29.88,WSW,237,0.0,4.0,75,0.00,CLR,,1.01,WeatherDisplay:10.37,2013-09-11 19:35:00,
2013-09-11 14:40:00,79.0,69.6,29.88,SW,233,1.0,4.0,73,0.00,CLR,,1.01,WeatherDisplay:10.37,2013-09-11 19:40:00,
2013-09-11 14:45:00,79.2,70.2,29.88,SW,220,0.0,1.0,74,0.00,CLR,,1.01,WeatherDisplay:10.37,2013-09-11 19:45:00,
2013-09-11 14:50:00,79.4,69.6,29.88,SSW,205,0.0,1.0,72,0.00,CLR,,1.01,WeatherDisplay:10.37,2013-09-11 19:50:00,
2013-09-11 14:55:00,79.4,69.6,29.88,SW,216,1.0,3.0,72,0.00,CLR,,1.01,WeatherDisplay:10.37,2013-09-11 19:55:00,
2013-09-11 15:00:00,79.2,69.4,29.88,SW,224,0.0,1.0,72,0.00,CLR,,1.01,WeatherDisplay:10.37,2013-09-11 20:00:00,
2013-09-11 15:05:00,79.4,68.3,29.87,SW,216,0.0,6.0,69,0.00,CLR,,1.01,WeatherDisplay:10.37,2013-09-11 20:05:00,
2013-09-11 15:10:00,79.4,68.3,29.87,SW,215,0.0,1.0,69,0.00,CLR,,1.01,WeatherDisplay:10.37,2013-09-11 20:10:00,
2013-09-11 15:15:00,79.4,68.8,29.87,SW,228,0.0,5.0,70,0.00,CLR,,1.01,WeatherDisplay:10.37,2013-09-11 20:15:00,
2013-09-11 15:20:00,79.2,69.0,29.87,West,268,0.0,4.0,71,0.00,CLR,,1.01,WeatherDisplay:10.37,2013-09-11 20:20:00,
2013-09-11 15:25:00,79.2,68.6,29.87,West,271,1.0,3.0,70,0.00,CLR,,1.01,WeatherDisplay:10.37,2013-09-11 20:25:00,
2013-09-11 15:30:00,79.2,68.6,29.87,West,272,1.0,4.0,70,0.00,CLR,,1.01,WeatherDisplay:10.37,2013-09-11 20:30:00,
2013-09-11 15:35:00,79.2,68.1,29.86,West,271,0.0,3.0,69,0.00,CLR,,1.01,WeatherDisplay:10.37,2013-09-11 20:35:00,
2013-09-11 15:40:00,79.0,68.4,29.86,SW,230,0.0,4.0,70,0.00,CLR,,1.01,WeatherDisplay:10.37,2013-09-11 20:40:00,
2013-09-11 15:45:00,78.8,68.6,29.86,SW,222,0.0,3.0,71,0.00,CLR,,1.01,WeatherDisplay:10.37,2013-09-11 20:45:00,
2013-09-11 15:50:00,78.8,67.8,29.86,SW,224,1.0,5.0,69,0.00,CLR,,1.01,WeatherDisplay:10.37,2013-09-11 20:50:00,
2013-09-11 15:55:00,79.0,68.0,29.86,SW,222,0.0,4.0,69,0.00,CLR,,1.01,WeatherDisplay:10.37,2013-09-11 20:55:00,
2013-09-11 16:00:00,79.0,67.5,29.86,SW,231,2.0,6.0,68,0.00,CLR,,1.01,WeatherDisplay:10.37,2013-09-11 21:00:00,
2013-09-11 16:05:00,79.0,67.5,29.86,WSW,238,1.0,4.0,68,0.00,CLR,,1.01,WeatherDisplay:10.37,2013-09-11 21:05:00,
2013-09-11 16:10:00,79.0,68.0,29.86,WSW,250,0.0,1.0,69,0.00,CLR,,1.01,WeatherDisplay:10.37,2013-09-11 21:10:00,
2013-09-11 16:15:00,79.2,67.3,29.86,SW,216,1.0,7.0,67,0.00,CLR,,1.01,WeatherDisplay:10.37,2013-09-11 21:15:00,
2013-09-11 16:20:00,79.2,67.7,29.86,SSW,213,0.0,8.0,68,0.00,CLR,,1.01,WeatherDisplay:10.37,2013-09-11 21:20:00,
2013-09-11 16:25:00,79.2,66.9,29.86,SSW,213,3.0,8.0,66,0.00,CLR,,1.01,WeatherDisplay:10.37,2013-09-11 21:25:00,
2013-09-11 16:30:00,79.2,66.0,29.86,SW,226,1.0,6.0,64,0.00,CLR,,1.01,WeatherDisplay:10.37,2013-09-11 21:30:00,
2013-09-11 16:35:00,79.2,65.5,29.86,SW,222,1.0,5.0,63,0.00,CLR,,1.01,WeatherDisplay:10.37,2013-09-11 21:35:00,
2013-09-11 16:40:00,79.2,66.4,29.86,SW,220,0.0,4.0,65,0.00,CLR,,1.01,WeatherDisplay:10.37,2013-09-11 21:40:00,
2013-09-11 16:45:00,78.8,66.0,29.86,SW,221,3.0,5.0,65,0.00,CLR,,1.01,WeatherDisplay:10.37,2013-09-11 21:45:00,
2013-09-11 16:50:00,78.8,66.9,29.87,SW,226,0.0,2.0,67,0.00,CLR,,1.01,WeatherDisplay:10.37,2013-09-11 21:50:00,
2013-09-11 16:55:00,78.6,66.7,29.87,WSW,245,0.0,3.0,67,0.00,CLR,,1.01,WeatherDisplay:10.37,2013-09-11 21:55:00,
2013-09-11 17:00:00,78.5,66.2,29.87,West,262,0.0,1.0,66,0.00,CLR,,1.01,WeatherDisplay:10.37,2013-09-11 22:00:00,
2013-09-11 17:05:00,78.5,67.1,29.86,SW,217,0.0,5.0,68,0.00,CLR,,1.01,WeatherDisplay:10.37,2013-09-11 22:05:00,
2013-09-11 17:10:00,78.6,65.4,29.86,SW,217,1.0,4.0,64,0.00,CLR,,1.01,WeatherDisplay:10.37,2013-09-11 22:10:00,
2013-09-11 17:15:00,78.8,65.6,29.86,West,275,0.0,3.0,64,0.00,CLR,,1.01,WeatherDisplay:10.37,2013-09-11 22:15:00,
2013-09-11 17:20:00,78.8,65.6,29.86,WSW,257,1.0,6.0,64,0.00,CLR,,1.01,WeatherDisplay:10.37,2013-09-11 22:20:00,
2013-09-11 17:25:00,78.6,65.8,29.86,SW,226,0.0,1.0,65,0.00,CLR,,1.01,WeatherDisplay:10.37,2013-09-11 22:25:00,
2013-09-11 17:30:00,78.5,67.1,29.86,SW,231,0.0,4.0,68,0.00,CLR,,1.01,WeatherDisplay:10.37,2013-09-11 22:30:00,
2013-09-11 17:35:00,78.1,66.2,29.85,SW,214,1.0,3.0,67,0.00,CLR,,1.01,WeatherDisplay:10.37,2013-09-11 22:35:00,
2013-09-11 17:40:00,77.9,65.6,29.85,SSW,199,0.0,2.0,66,0.00,CLR,,1.01,WeatherDisplay:10.37,2013-09-11 22:40:00,
2013-09-11 17:45:00,77.9,67.3,29.85,SSW,198,0.0,3.0,70,0.00,CLR,,1.01,WeatherDisplay:10.37,2013-09-11 22:45:00,
2013-09-11 17:50:00,77.7,67.5,29.85,SSW,198,0.0,1.0,71,0.00,CLR,,1.01,WeatherDisplay:10.37,2013-09-11 22:50:00,
2013-09-11 17:55:00,77.6,67.9,29.85,SSW,198,1.0,4.0,72,0.00,CLR,,1.01,WeatherDisplay:10.37,2013-09-11 22:55:00,
2013-09-11 18:00:00,77.4,67.7,29.85,SSW,209,0.0,4.0,72,0.00,CLR,,1.01,WeatherDisplay:10.37,2013-09-11 23:00:00,
2013-09-11 18:05:00,77.2,66.7,29.85,SW,233,0.0,4.0,70,0.00,CLR,,1.01,WeatherDisplay:10.37,2013-09-11 23:05:00,
2013-09-11 18:10:00,77.0,67.7,29.85,SW,228,0.0,1.0,73,0.00,CLR,,1.01,WeatherDisplay:10.37,2013-09-11 23:10:00,
2013-09-11 18:15:00,76.6,66.9,29.85,SW,229,1.0,4.0,72,0.00,CLR,,1.01,WeatherDisplay:10.37,2013-09-11 23:15:00,
2013-09-11 18:20:00,76.1,66.8,29.85,SW,230,0.0,4.0,73,0.00,CLR,,1.01,WeatherDisplay:10.37,2013-09-11 23:20:00,
2013-09-11 18:25:00,75.8,66.9,29.85,SW,231,0.0,0.0,74,0.00,CLR,,1.01,WeatherDisplay:10.37,2013-09-11 23:25:00,
2013-09-11 18:30:00,75.4,66.9,29.85,SW,232,0.0,2.0,75,0.00,CLR,,1.01,WeatherDisplay:10.37,2013-09-11 23:30:00,
2013-09-11 18:35:00,75.0,66.6,29.85,SSW,208,0.0,3.0,75,0.00,CLR,,1.01,WeatherDisplay:10.37,2013-09-11 23:35:00,
2013-09-11 18:40:00,74.6,65.8,29.85,SSW,192,0.0,2.0,74,0.00,CLR,,1.01,WeatherDisplay:10.37,2013-09-11 23:40:00,
2013-09-11 18:45:00,74.4,66.3,29.85,SSW,192,0.0,1.0,76,0.00,CLR,,1.01,WeatherDisplay:10.37,2013-09-11 23:45:00,
2013-09-11 18:50:00,74.1,66.0,29.84,SSW,192,0.0,1.0,76,0.00,CLR,,1.01,WeatherDisplay:10.37,2013-09-11 23:50:00,
2013-09-11 18:55:00,73.9,65.9,29.84,SSW,192,0.0,0.0,76,0.00,CLR,,1.01,WeatherDisplay:10.37,2013-09-11 23:55:00,
2013-09-11 19:00:00,73.5,65.8,29.84,SSW,192,0.0,2.0,77,0.00,CLR,,1.01,WeatherDisplay:10.37,2013-09-12 00:00:00,
2013-09-11 19:05:00,73.3,65.7,29.84,SSW,192,0.0,0.0,77,0.00,CLR,,1.01,WeatherDisplay:10.37,2013-09-12 00:05:00,
2013-09-11 19:10:00,73.0,65.7,29.84,SSW,192,0.0,3.0,78,0.00,CLR,,1.01,WeatherDisplay:10.37,2013-09-12 00:10:00,
2013-09-11 19:15:00,72.7,66.2,29.84,SSW,199,0.0,2.0,80,0.00,CLR,,1.01,WeatherDisplay:10.37,2013-09-12 00:15:00,
2013-09-11 19:20:00,72.3,65.8,29.84,SSW,211,0.0,2.0,80,0.00,CLR,,1.01,WeatherDisplay:10.37,2013-09-12 00:20:00,
2013-09-11 19:25:00,71.9,65.7,29.84,SSW,212,0.0,0.0,81,0.00,CLR,,1.01,WeatherDisplay:10.37,2013-09-12 00:25:00,
2013-09-11 19:30:00,71.5,65.7,29.84,SSW,212,0.0,0.0,82,0.00,CLR,,1.01,WeatherDisplay:10.37,2013-09-12 00:30:00,
2013-09-11 19:35:00,71.1,65.7,29.84,SSW,212,0.0,0.0,83,0.00,CLR,,1.01,WeatherDisplay:10.37,2013-09-12 00:35:00,
2013-09-11 19:40:00,70.9,65.8,29.84,SSW,211,0.0,0.0,84,0.00,CLR,,1.01,WeatherDisplay:10.37,2013-09-12 00:40:00,
2013-09-11 19:45:00,70.6,65.5,29.84,SSW,211,0.0,0.0,84,0.00,CLR,,1.01,WeatherDisplay:10.37,2013-09-12 00:45:00,
2013-09-11 19:50:00,70.4,65.7,29.84,SSW,212,0.0,1.0,85,0.00,CLR,,1.01,WeatherDisplay:10.37,2013-09-12 00:50:00,
2013-09-11 19:55:00,70.1,65.4,29.84,SSW,212,0.0,0.0,85,0.00,CLR,,1.01,WeatherDisplay:10.37,2013-09-12 00:55:00,
2013-09-11 20:00:00,69.9,65.5,29.84,SSW,212,0.0,0.0,86,0.00,CLR,,1.01,WeatherDisplay:10.37,2013-09-12 01:00:00,
2013-09-11 20:05:00,69.6,65.6,29.85,SSW,212,0.0,0.0,87,0.00,CLR,,1.01,WeatherDisplay:10.37,2013-09-12 01:05:00,
2013-09-11 20:10:00,69.4,65.4,29.85,SSW,212,0.0,0.0,87,0.00,CLR,,1.01,WeatherDisplay:10.37,2013-09-12 01:10:00,
2013-09-11 20:15:00,69.3,65.6,29.85,SSW,212,0.0,0.0,88,0.00,CLR,,1.01,WeatherDisplay:10.37,2013-09-12 01:15:00,
2013-09-11 20:20:00,69.1,65.4,29.85,SSW,212,0.0,0.0,88,0.00,CLR,,1.01,WeatherDisplay:10.37,2013-09-12 01:20:00,
2013-09-11 20:25:00,68.9,65.5,29.85,SSW,212,0.0,0.0,89,0.00,CLR,,1.01,WeatherDisplay:10.37,2013-09-12 01:25:00,
2013-09-11 20:30:00,68.8,65.4,29.85,SSW,212,0.0,0.0,89,0.00,CLR,,1.01,WeatherDisplay:10.37,2013-09-12 01:30:00,
2013-09-11 20:35:00,68.8,65.7,29.85,SSW,212,0.0,0.0,90,0.00,CLR,,1.01,WeatherDisplay:10.37,2013-09-12 01:35:00,
2013-09-11 20:40:00,68.6,65.5,29.85,SSW,212,0.0,0.0,90,0.00,CLR,,1.01,WeatherDisplay:10.37,2013-09-12 01:40:00,
2013-09-11 20:45:00,68.4,65.7,29.85,SSW,212,0.0,0.0,91,0.00,CLR,,1.01,WeatherDisplay:10.37,2013-09-12 01:45:00,
2013-09-11 20:50:00,68.3,65.6,29.85,SSW,212,0.0,0.0,91,0.00,CLR,,1.01,WeatherDisplay:10.37,2013-09-12 01:50:00,
2013-09-11 20:55:00,68.3,65.5,29.85,SSW,212,0.0,0.0,91,0.00,CLR,,1.01,WeatherDisplay:10.37,2013-09-12 01:55:00,
2013-09-11 21:00:00,68.1,65.7,29.85,SSW,212,0.0,0.0,92,0.00,CLR,,1.01,WeatherDisplay:10.37,2013-09-12 02:00:00,
2013-09-11 21:05:00,67.9,65.5,29.85,SSW,212,0.0,0.0,92,0.00,CLR,,1.01,WeatherDisplay:10.37,2013-09-12 02:05:00,
2013-09-11 21:10:00,67.8,65.4,29.85,SSW,212,0.0,0.0,92,0.00,CLR,,1.01,WeatherDisplay:10.37,2013-09-12 02:10:00,
2013-09-11 21:15:00,67.6,65.5,29.85,SSW,212,0.0,0.0,93,0.00,CLR,,1.01,WeatherDisplay:10.37,2013-09-12 02:15:00,
2013-09-11 21:20:00,67.5,65.4,29.85,SSW,212,0.0,0.0,93,0.00,CLR,,1.01,WeatherDisplay:10.37,2013-09-12 02:20:00,
2013-09-11 21:25:00,67.4,65.3,29.85,SSW,212,0.0,0.0,93,0.00,CLR,,1.01,WeatherDisplay:10.37,2013-09-12 02:25:00,
2013-09-11 21:30:00,67.3,65.5,29.85,SSW,212,0.0,0.0,94,0.00,CLR,,1.01,WeatherDisplay:10.37,2013-09-12 02:30:00,
2013-09-11 21:35:00,67.3,65.5,29.85,SSW,212,0.0,0.0,94,0.00,CLR,,1.01,WeatherDisplay:10.37,2013-09-12 02:35:00,
2013-09-11 21:40:00,67.3,65.5,29.85,SSW,212,0.0,0.0,94,0.00,CLR,,1.01,WeatherDisplay:10.37,2013-09-12 02:40:00,
2013-09-11 21:45:00,67.3,65.8,29.85,SSW,212,0.0,0.0,95,0.00,CLR,,1.01,WeatherDisplay:10.37,2013-09-12 02:45:00,
2013-09-11 21:50:00,67.3,65.8,29.84,SSW,212,0.0,0.0,95,0.00,CLR,,1.01,WeatherDisplay:10.37,2013-09-12 02:50:00,
2013-09-11 21:55:00,67.3,65.5,29.84,SSW,212,0.0,0.0,94,0.00,CLR,,1.01,WeatherDisplay:10.37,2013-09-12 02:55:00,
2013-09-11 22:00:00,67.3,65.8,29.84,SSW,212,0.0,0.0,95,0.00,CLR,,1.01,WeatherDisplay:10.37,2013-09-12 03:00:00,
2013-09-11 22:05:00,67.3,65.8,29.85,SSW,212,0.0,0.0,95,0.00,CLR,,1.01,WeatherDisplay:10.37,2013-09-12 03:05:00,
2013-09-11 22:10:00,67.3,65.5,29.85,SSW,212,0.0,0.0,94,0.00,CLR,,1.01,WeatherDisplay:10.37,2013-09-12 03:10:00,
2013-09-11 22:15:00,67.3,65.5,29.85,SSW,212,0.0,0.0,94,0.00,CLR,,1.01,WeatherDisplay:10.37,2013-09-12 03:15:00,
2013-09-11 22:20:00,67.1,65.3,29.85,SSW,212,0.0,0.0,94,0.00,CLR,,1.01,WeatherDisplay:10.37,2013-09-12 03:20:00,
2013-09-11 22:25:00,66.9,65.1,29.85,SSW,212,0.0,0.0,94,0.00,CLR,,1.01,WeatherDisplay:10.37,2013-09-12 03:25:00,
2013-09-11 22:30:00,67.1,65.6,29.85,SSW,212,0.0,0.0,95,0.00,CLR,,1.01,WeatherDisplay:10.37,2013-09-12 03:30:00,
2013-09-11 22:35:00,67.3,65.8,29.85,SSW,212,0.0,0.0,95,0.00,CLR,,1.01,WeatherDisplay:10.37,2013-09-12 03:35:00,
2013-09-11 22:40:00,68.3,66.8,29.85,SW,222,0.0,3.0,95,0.00,CLR,,1.01,WeatherDisplay:10.37,2013-09-12 03:40:00,
2013-09-11 22:45:00,69.4,67.3,29.85,NNW,339,0.0,1.0,93,0.00,CLR,,1.01,WeatherDisplay:10.37,2013-09-12 03:45:00,
2013-09-11 22:50:00,70.2,67.1,29.86,NNW,346,0.0,2.0,90,0.00,CLR,,1.01,WeatherDisplay:10.37,2013-09-12 03:50:00,
2013-09-11 22:55:00,70.4,66.7,29.86,NNW,340,0.0,5.0,88,0.00,CLR,,1.01,WeatherDisplay:10.37,2013-09-12 03:55:00,
2013-09-11 23:00:00,70.6,66.2,29.86,NNW,336,0.0,3.0,86,0.00,CLR,,1.01,WeatherDisplay:10.37,2013-09-12 04:00:00,
2013-09-11 23:05:00,70.4,65.7,29.86,NNW,336,1.0,6.0,85,0.00,CLR,,1.01,WeatherDisplay:10.37,2013-09-12 04:05:00,
2013-09-11 23:10:00,70.6,65.5,29.86,NNW,334,1.0,4.0,84,0.00,CLR,,1.01,WeatherDisplay:10.37,2013-09-12 04:10:00,
2013-09-11 23:15:00,70.4,65.3,29.86,NNW,331,2.0,5.0,84,0.00,CLR,,1.01,WeatherDisplay:10.37,2013-09-12 04:15:00,
2013-09-11 23:20:00,70.3,65.2,29.86,NNW,333,0.0,8.0,84,0.00,CLR,,1.01,WeatherDisplay:10.37,2013-09-12 04:20:00,
2013-09-11 23:25:00,70.3,65.2,29.86,NNW,332,1.0,5.0,84,0.00,CLR,,1.01,WeatherDisplay:10.37,2013-09-12 04:25:00,
2013-09-11 23:30:00,70.0,64.9,29.86,NNW,337,2.0,4.0,84,0.00,CLR,,1.01,WeatherDisplay:10.37,2013-09-12 04:30:00,
2013-09-11 23:35:00,69.8,64.7,29.86,NNW,348,1.0,6.0,84,0.00,CLR,,1.01,WeatherDisplay:10.37,2013-09-12 04:35:00,
2013-09-11 23:40:00,69.4,64.4,29.86,North,350,0.0,5.0,84,0.00,CLR,,1.01,WeatherDisplay:10.37,2013-09-12 04:40:00,
2013-09-11 23:45:00,69.3,64.3,29.86,NNW,339,0.0,4.0,84,0.00,CLR,,1.01,WeatherDisplay:10.37,2013-09-12 04:45:00,
2013-09-11 23:50:00,69.1,64.1,29.86,NNW,334,0.0,5.0,84,0.00,CLR,,1.01,WeatherDisplay:10.37,2013-09-12 04:50:00,
2013-09-11 23:55:00,68.9,63.9,29.86,NNW,333,0.0,6.0,84,0.00,CLR,,1.01,WeatherDisplay:10.37,2013-09-12 04:55:00,